createdAt,value
2023-02-02T00:00:48.281Z,76.84
2023-02-02T00:01:48.289Z,76.73
2023-02-02T00:02:48.313Z,76.98
2023-02-02T00:03:48.265Z,77.19
2023-02-02T00:04:49.245Z,77.25
2023-02-02T00:05:48.220Z,77.15
2023-02-02T00:06:48.217Z,76.84
2023-02-02T00:07:48.227Z,77.15
2023-02-02T00:08:48.187Z,77.01
2023-02-02T00:09:49.212Z,76.50
2023-02-02T00:10:48.168Z,76.29
2023-02-02T00:11:49.187Z,75.98
2023-02-02T00:12:48.157Z,76.18
2023-02-02T00:13:48.169Z,75.77
2023-02-02T00:14:48.163Z,75.26
2023-02-02T00:15:48.127Z,76.29
2023-02-02T00:16:48.142Z,76.18
2023-02-02T00:17:48.119Z,76.39
2023-02-02T00:18:48.115Z,75.26
2023-02-02T00:19:48.105Z,75.15
2023-02-02T00:20:48.100Z,75.26
2023-02-02T00:21:48.059Z,74.95
2023-02-02T00:22:48.076Z,76.43
2023-02-02T00:23:48.064Z,75.77
2023-02-02T00:24:48.055Z,75.67
2023-02-02T00:25:49.059Z,76.22
2023-02-02T00:26:49.039Z,76.08
2023-02-02T00:27:48.006Z,76.43
2023-02-02T00:28:48.979Z,76.12
2023-02-02T00:29:47.961Z,76.08
2023-02-02T00:30:47.986Z,75.19
2023-02-02T00:31:48.047Z,75.05
2023-02-02T00:32:47.940Z,75.15
2023-02-02T00:33:47.933Z,75.01
2023-02-02T00:34:47.928Z,75.05
2023-02-02T00:35:49.451Z,74.02
2023-02-02T00:36:47.913Z,74.02
2023-02-02T00:37:47.922Z,74.43
2023-02-02T00:38:47.890Z,74.33
2023-02-02T00:39:47.865Z,74.22
2023-02-02T00:40:47.859Z,73.88
2023-02-02T00:41:47.850Z,73.50
2023-02-02T00:42:48.861Z,73.50
2023-02-02T00:43:47.873Z,74.29
2023-02-02T00:44:47.804Z,73.81
2023-02-02T00:45:47.822Z,73.91
2023-02-02T00:46:47.813Z,74.02
2023-02-02T00:47:47.794Z,74.53
2023-02-02T00:48:47.807Z,74.02
2023-02-02T00:49:47.788Z,73.98
2023-02-02T00:50:48.776Z,74.29
2023-02-02T00:51:47.785Z,72.95
2023-02-02T00:52:47.755Z,72.85
2023-02-02T00:53:47.730Z,73.57
2023-02-02T00:54:47.722Z,73.36
2023-02-02T00:55:48.703Z,73.68
2023-02-02T00:56:47.682Z,73.36
2023-02-02T00:57:47.754Z,73.47
2023-02-02T00:58:47.700Z,73.77
2023-02-02T00:59:47.651Z,73.88
2023-02-02T01:00:47.730Z,73.43
2023-02-02T01:01:47.685Z,72.95
2023-02-02T01:02:47.618Z,73.68
2023-02-02T01:03:47.658Z,73.88
2023-02-02T01:04:47.584Z,73.36
2023-02-02T01:05:47.591Z,72.95
2023-02-02T01:06:47.598Z,73.77
2023-02-02T01:07:48.566Z,73.36
2023-02-02T01:08:47.559Z,73.57
2023-02-02T01:09:47.587Z,73.02
2023-02-02T01:10:47.533Z,72.95
2023-02-02T01:11:47.529Z,73.43
2023-02-02T01:12:47.532Z,72.50
2023-02-02T01:13:47.507Z,73.22
2023-02-02T01:14:47.529Z,72.71
2023-02-02T01:15:47.489Z,73.05
2023-02-02T01:16:47.529Z,72.85
2023-02-02T01:17:47.462Z,72.92
2023-02-02T01:18:47.466Z,72.81
2023-02-02T01:19:48.473Z,72.92
2023-02-02T01:20:48.421Z,73.05
2023-02-02T01:21:48.485Z,72.74
2023-02-02T01:22:47.405Z,72.92
2023-02-02T01:23:47.429Z,72.54
2023-02-02T01:24:48.436Z,72.92
2023-02-02T01:25:47.376Z,73.05
2023-02-02T01:26:47.414Z,72.95
2023-02-02T01:27:48.345Z,72.61
2023-02-02T01:28:47.373Z,72.92
2023-02-02T01:29:47.341Z,72.30
2023-02-02T01:30:47.351Z,72.81
2023-02-02T01:31:47.341Z,72.50
2023-02-02T01:32:47.302Z,72.13
2023-02-02T01:33:47.299Z,72.64
2023-02-02T01:34:48.290Z,72.85
2023-02-02T01:35:47.292Z,72.50
2023-02-02T01:36:47.247Z,72.54
2023-02-02T01:37:47.257Z,72.95
2023-02-02T01:38:47.227Z,72.64
2023-02-02T01:39:47.240Z,72.95
2023-02-02T01:40:48.242Z,72.44
2023-02-02T01:41:47.233Z,72.33
2023-02-02T01:42:48.194Z,72.74
2023-02-02T01:43:47.172Z,72.44
2023-02-02T01:44:47.160Z,72.33
2023-02-02T01:45:48.200Z,72.54
2023-02-02T01:46:47.140Z,71.51
2023-02-02T01:47:47.246Z,72.16
2023-02-02T01:48:47.116Z,72.47
2023-02-02T01:49:47.122Z,72.26
2023-02-02T01:50:47.128Z,72.16
2023-02-02T01:51:47.133Z,72.26
2023-02-02T01:52:47.498Z,72.91
2023-02-02T01:53:47.099Z,72.99
2023-02-02T01:54:48.084Z,72.61
2023-02-02T01:55:47.054Z,73.02
2023-02-02T01:56:47.031Z,72.81
2023-02-02T01:57:47.015Z,72.78
2023-02-02T01:58:47.025Z,72.67
2023-02-02T01:59:47.025Z,72.88
2023-02-02T02:00:47.243Z,72.36
2023-02-02T02:01:46.989Z,72.78
2023-02-02T02:02:47.072Z,72.06
2023-02-02T02:03:46.975Z,71.95
2023-02-02T02:04:46.989Z,72.26
2023-02-02T02:05:47.080Z,72.78
2023-02-02T02:06:46.968Z,72.57
2023-02-02T02:07:46.945Z,72.67
2023-02-02T02:08:46.934Z,72.61
2023-02-02T02:09:46.921Z,72.19
2023-02-02T02:10:47.014Z,72.06
2023-02-02T02:11:46.890Z,72.67
2023-02-02T02:12:46.870Z,72.61
2023-02-02T02:13:46.862Z,72.36
2023-02-02T02:14:47.882Z,72.47
2023-02-02T02:15:46.826Z,72.26
2023-02-02T02:16:47.903Z,72.36
2023-02-02T02:17:46.849Z,72.36
2023-02-02T02:18:46.813Z,72.64
2023-02-02T02:19:47.824Z,72.85
2023-02-02T02:20:46.806Z,71.95
2023-02-02T02:21:47.784Z,71.95
2023-02-02T02:22:46.768Z,72.26
2023-02-02T02:23:46.759Z,72.06
2023-02-02T02:24:46.773Z,71.95
2023-02-02T02:25:46.798Z,71.85
2023-02-02T02:26:46.757Z,71.95
2023-02-02T02:27:46.728Z,72.19
2023-02-02T02:28:46.709Z,73.02
2023-02-02T02:29:46.706Z,72.88
2023-02-02T02:30:46.743Z,71.95
2023-02-02T02:31:46.799Z,72.26
2023-02-02T02:32:47.680Z,72.57
2023-02-02T02:33:46.662Z,71.95
2023-02-02T02:34:46.640Z,71.85
2023-02-02T02:35:47.648Z,71.64
2023-02-02T02:36:46.670Z,71.85
2023-02-02T02:37:46.607Z,71.54
2023-02-02T02:38:46.598Z,71.85
2023-02-02T02:39:46.625Z,71.85
2023-02-02T02:40:46.617Z,72.16
2023-02-02T02:41:47.603Z,72.16
2023-02-02T02:42:46.564Z,71.95
2023-02-02T02:43:47.572Z,72.26
2023-02-02T02:44:47.557Z,72.81
2023-02-02T02:45:46.524Z,72.57
2023-02-02T02:46:46.523Z,71.85
2023-02-02T02:47:46.513Z,72.06
2023-02-02T02:48:46.487Z,71.75
2023-02-02T02:49:46.499Z,71.44
2023-02-02T02:50:46.465Z,71.44
2023-02-02T02:51:46.447Z,71.81
2023-02-02T02:52:46.473Z,70.99
2023-02-02T02:53:46.476Z,71.20
2023-02-02T02:54:46.438Z,71.41
2023-02-02T02:55:47.419Z,71.20
2023-02-02T02:56:46.431Z,71.51
2023-02-02T02:57:46.408Z,71.09
2023-02-02T02:58:46.415Z,70.89
2023-02-02T02:59:46.355Z,70.40
2023-02-02T03:00:46.378Z,70.57
2023-02-02T03:01:46.424Z,70.68
2023-02-02T03:02:46.360Z,70.99
2023-02-02T03:03:46.325Z,71.30
2023-02-02T03:04:46.799Z,71.20
2023-02-02T03:05:46.341Z,70.17
2023-02-02T03:06:46.295Z,70.17
2023-02-02T03:07:47.284Z,70.34
2023-02-02T03:08:46.277Z,70.47
2023-02-02T03:09:46.290Z,70.37
2023-02-02T03:10:47.296Z,70.23
2023-02-02T03:11:46.250Z,70.03
2023-02-02T03:12:46.250Z,70.17
2023-02-02T03:13:46.236Z,70.37
2023-02-02T03:14:46.216Z,70.27
2023-02-02T03:15:46.225Z,69.82
2023-02-02T03:16:46.209Z,69.75
2023-02-02T03:17:46.215Z,69.65
2023-02-02T03:18:46.179Z,70.06
2023-02-02T03:19:47.146Z,70.17
2023-02-02T03:20:46.213Z,69.44
2023-02-02T03:21:46.176Z,69.44
2023-02-02T03:22:47.127Z,69.54
2023-02-02T03:23:47.146Z,69.65
2023-02-02T03:24:46.102Z,70.06
2023-02-02T03:25:47.096Z,69.54
2023-02-02T03:26:46.122Z,69.54
2023-02-02T03:27:46.097Z,69.44
2023-02-02T03:28:46.093Z,69.44
2023-02-02T03:29:46.113Z,69.65
2023-02-02T03:30:46.273Z,69.99
2023-02-02T03:31:46.101Z,70.30
2023-02-02T03:32:46.012Z,70.51
2023-02-02T03:33:47.031Z,69.99
2023-02-02T03:34:46.013Z,69.99
2023-02-02T03:35:45.993Z,70.09
2023-02-02T03:36:45.992Z,70.17
2023-02-02T03:37:45.978Z,69.65
2023-02-02T03:38:46.987Z,69.78
2023-02-02T03:39:46.978Z,69.89
2023-02-02T03:40:45.954Z,70.30
2023-02-02T03:41:46.926Z,70.17
2023-02-02T03:42:45.917Z,70.37
2023-02-02T03:43:45.916Z,69.96
2023-02-02T03:44:45.906Z,69.96
2023-02-02T03:45:45.890Z,70.27
2023-02-02T03:46:45.930Z,69.85
2023-02-02T03:47:45.864Z,69.65
2023-02-02T03:48:45.909Z,69.75
2023-02-02T03:49:45.824Z,69.44
2023-02-02T03:50:45.837Z,69.34
2023-02-02T03:51:45.828Z,69.65
2023-02-02T03:52:46.809Z,69.44
2023-02-02T03:53:46.857Z,69.54
2023-02-02T03:54:45.789Z,69.65
2023-02-02T03:55:45.768Z,69.85
2023-02-02T03:56:45.779Z,69.34
2023-02-02T03:57:45.758Z,69.62
2023-02-02T03:58:45.735Z,69.41
2023-02-02T03:59:45.750Z,69.65
2023-02-02T04:00:45.708Z,69.44
2023-02-02T04:01:45.736Z,69.44
2023-02-02T04:02:45.815Z,69.44
2023-02-02T04:03:45.703Z,69.24
2023-02-02T04:04:45.701Z,68.82
2023-02-02T04:05:45.667Z,69.44
2023-02-02T04:06:45.663Z,69.03
2023-02-02T04:07:45.635Z,69.24
2023-02-02T04:08:46.658Z,68.93
2023-02-02T04:09:45.626Z,69.03
2023-02-02T04:10:45.608Z,68.62
2023-02-02T04:11:45.627Z,68.72
2023-02-02T04:12:45.594Z,68.72
2023-02-02T04:13:45.623Z,68.82
2023-02-02T04:14:45.579Z,68.85
2023-02-02T04:15:45.602Z,69.68
2023-02-02T04:16:45.541Z,69.37
2023-02-02T04:17:45.536Z,68.93
2023-02-02T04:18:46.540Z,69.78
2023-02-02T04:19:45.509Z,69.24
2023-02-02T04:20:45.512Z,68.82
2023-02-02T04:21:46.476Z,68.96
2023-02-02T04:22:45.485Z,69.17
2023-02-02T04:23:45.485Z,68.82
2023-02-02T04:24:45.479Z,69.37
2023-02-02T04:25:46.476Z,69.17
2023-02-02T04:26:45.539Z,69.44
2023-02-02T04:27:46.420Z,69.48
2023-02-02T04:28:45.459Z,69.44
2023-02-02T04:29:46.393Z,69.17
2023-02-02T04:30:46.523Z,69.65
2023-02-02T04:31:45.483Z,69.58
2023-02-02T04:32:46.369Z,69.17
2023-02-02T04:33:46.382Z,69.17
2023-02-02T04:34:45.365Z,69.03
2023-02-02T04:35:45.375Z,69.03
2023-02-02T04:36:45.390Z,68.75
2023-02-02T04:37:45.317Z,69.06
2023-02-02T04:38:45.325Z,69.17
2023-02-02T04:39:46.324Z,69.24
2023-02-02T04:40:45.321Z,69.24
2023-02-02T04:41:45.282Z,69.06
2023-02-02T04:42:45.291Z,69.34
2023-02-02T04:43:45.300Z,68.82
2023-02-02T04:44:45.273Z,69.54
2023-02-02T04:45:46.303Z,68.93
2023-02-02T04:46:45.243Z,68.62
2023-02-02T04:47:46.228Z,69.13
2023-02-02T04:48:45.228Z,68.93
2023-02-02T04:49:45.197Z,68.72
2023-02-02T04:50:45.180Z,68.82
2023-02-02T04:51:45.197Z,67.97
2023-02-02T04:52:45.176Z,68.48
2023-02-02T04:53:46.150Z,67.66
2023-02-02T04:54:45.140Z,67.97
2023-02-02T04:55:45.167Z,67.55
2023-02-02T04:56:45.128Z,67.66
2023-02-02T04:57:45.111Z,68.51
2023-02-02T04:58:45.081Z,68.38
2023-02-02T04:59:45.075Z,68.00
2023-02-02T05:00:45.096Z,68.82
2023-02-02T05:01:45.080Z,68.93
2023-02-02T05:02:45.122Z,68.72
2023-02-02T05:03:45.051Z,68.21
2023-02-02T05:04:45.056Z,68.82
2023-02-02T05:05:45.028Z,68.82
2023-02-02T05:06:45.023Z,68.62
2023-02-02T05:07:45.007Z,68.85
2023-02-02T05:08:45.017Z,69.17
2023-02-02T05:09:44.966Z,68.82
2023-02-02T05:10:45.959Z,68.72
2023-02-02T05:11:44.972Z,68.72
2023-02-02T05:12:45.962Z,68.72
2023-02-02T05:13:45.956Z,68.93
2023-02-02T05:14:44.935Z,68.93
2023-02-02T05:15:44.903Z,69.24
2023-02-02T05:16:44.944Z,69.27
2023-02-02T05:17:45.884Z,68.93
2023-02-02T05:18:44.867Z,69.48
2023-02-02T05:19:45.898Z,69.48
2023-02-02T05:20:44.849Z,69.06
2023-02-02T05:21:46.261Z,68.96
2023-02-02T05:22:44.837Z,69.37
2023-02-02T05:23:44.856Z,69.68
2023-02-02T05:24:44.807Z,69.58
2023-02-02T05:25:44.821Z,69.48
2023-02-02T05:26:45.857Z,69.58
2023-02-02T05:27:44.795Z,69.48
2023-02-02T05:28:44.765Z,69.48
2023-02-02T05:29:44.769Z,69.68
2023-02-02T05:30:44.779Z,69.58
2023-02-02T05:31:44.814Z,70.09
2023-02-02T05:32:44.759Z,69.68
2023-02-02T05:33:44.729Z,69.78
2023-02-02T05:34:44.719Z,69.85
2023-02-02T05:35:44.738Z,69.78
2023-02-02T05:36:44.683Z,69.24
2023-02-02T05:37:44.721Z,69.89
2023-02-02T05:38:44.686Z,69.54
2023-02-02T05:39:44.712Z,69.54
2023-02-02T05:40:44.633Z,69.44
2023-02-02T05:41:44.657Z,69.24
2023-02-02T05:42:44.628Z,68.85
2023-02-02T05:43:45.664Z,69.48
2023-02-02T05:44:44.593Z,69.44
2023-02-02T05:45:44.638Z,69.48
2023-02-02T05:46:44.569Z,69.44
2023-02-02T05:47:44.603Z,68.82
2023-02-02T05:48:44.561Z,69.48
2023-02-02T05:49:44.578Z,69.68
2023-02-02T05:50:44.593Z,69.54
2023-02-02T05:51:44.540Z,69.44
2023-02-02T05:52:44.545Z,69.48
2023-02-02T05:53:44.494Z,69.54
2023-02-02T05:54:44.519Z,69.65
2023-02-02T05:55:45.508Z,69.68
2023-02-02T05:56:44.468Z,69.68
2023-02-02T05:57:44.478Z,70.20
2023-02-02T05:58:44.477Z,69.68
2023-02-02T05:59:45.470Z,69.48
2023-02-02T06:00:44.450Z,69.48
2023-02-02T06:01:44.440Z,69.89
2023-02-02T06:02:45.502Z,70.20
2023-02-02T06:03:44.462Z,69.37
2023-02-02T06:04:44.412Z,69.37
2023-02-02T06:05:44.410Z,68.96
2023-02-02T06:06:44.379Z,69.06
2023-02-02T06:07:44.384Z,69.03
2023-02-02T06:08:44.382Z,68.82
2023-02-02T06:09:44.398Z,68.44
2023-02-02T06:10:44.326Z,68.51
2023-02-02T06:11:44.333Z,68.21
2023-02-02T06:12:44.321Z,68.62
2023-02-02T06:13:45.953Z,68.21
2023-02-02T06:14:44.315Z,68.69
2023-02-02T06:15:44.335Z,68.10
2023-02-02T06:16:44.282Z,68.27
2023-02-02T06:17:44.286Z,68.10
2023-02-02T06:18:44.277Z,68.54
2023-02-02T06:19:44.250Z,69.30
2023-02-02T06:20:44.208Z,69.71
2023-02-02T06:21:44.224Z,69.71
2023-02-02T06:22:44.203Z,70.33
2023-02-02T06:23:44.272Z,69.92
2023-02-02T06:24:45.194Z,69.61
2023-02-02T06:25:44.185Z,70.33
2023-02-02T06:26:44.197Z,70.67
2023-02-02T06:27:44.155Z,70.85
2023-02-02T06:28:44.184Z,70.33
2023-02-02T06:29:44.144Z,70.23
2023-02-02T06:30:45.272Z,69.92
2023-02-02T06:31:44.193Z,70.33
2023-02-02T06:32:44.091Z,70.43
2023-02-02T06:33:44.079Z,70.23
2023-02-02T06:34:44.120Z,70.33
2023-02-02T06:35:44.065Z,70.20
2023-02-02T06:36:44.073Z,70.03
2023-02-02T06:37:45.031Z,70.03
2023-02-02T06:38:45.046Z,69.89
2023-02-02T06:39:45.062Z,69.78
2023-02-02T06:40:44.097Z,69.78
2023-02-02T06:41:44.001Z,69.78
2023-02-02T06:42:45.018Z,69.78
2023-02-02T06:43:43.998Z,69.99
2023-02-02T06:44:43.952Z,70.20
2023-02-02T06:45:43.984Z,69.99
2023-02-02T06:46:43.951Z,70.30
2023-02-02T06:47:43.968Z,70.20
2023-02-02T06:48:43.930Z,69.68
2023-02-02T06:49:43.898Z,70.09
2023-02-02T06:50:43.924Z,69.89
2023-02-02T06:51:43.882Z,70.09
2023-02-02T06:52:44.905Z,69.89
2023-02-02T06:53:43.882Z,70.09
2023-02-02T06:54:43.860Z,69.78
2023-02-02T06:55:43.862Z,70.09
2023-02-02T06:56:43.847Z,70.17
2023-02-02T06:57:43.832Z,69.75
2023-02-02T06:58:43.857Z,69.62
2023-02-02T06:59:43.823Z,69.51
2023-02-02T07:00:44.789Z,69.65
2023-02-02T07:01:43.843Z,69.75
2023-02-02T07:02:43.850Z,69.85
2023-02-02T07:03:43.780Z,69.65
2023-02-02T07:04:43.750Z,69.44
2023-02-02T07:05:43.751Z,69.44
2023-02-02T07:06:43.767Z,69.78
2023-02-02T07:07:44.714Z,70.09
2023-02-02T07:08:43.699Z,70.09
2023-02-02T07:09:43.717Z,69.44
2023-02-02T07:11:11.512Z,69.65
2023-02-02T07:11:45.253Z,69.62
2023-02-02T07:12:43.658Z,68.93
2023-02-02T07:13:43.661Z,68.93
2023-02-02T07:14:43.652Z,68.79
2023-02-02T07:15:43.702Z,69.54
2023-02-02T07:16:44.623Z,68.79
2023-02-02T07:17:43.627Z,68.38
2023-02-02T07:18:43.642Z,68.59
2023-02-02T07:19:43.586Z,68.79
2023-02-02T07:20:43.574Z,68.38
2023-02-02T07:21:43.555Z,68.59
2023-02-02T07:22:43.571Z,68.55
2023-02-02T07:23:43.582Z,68.07
2023-02-02T07:24:43.563Z,68.45
2023-02-02T07:25:43.966Z,68.69
2023-02-02T07:26:43.589Z,68.79
2023-02-02T07:27:43.533Z,68.66
2023-02-02T07:28:43.545Z,67.63
2023-02-02T07:29:43.497Z,67.76
2023-02-02T07:30:43.589Z,67.83
2023-02-02T07:31:43.587Z,67.52
2023-02-02T07:32:43.435Z,67.52
2023-02-02T07:33:43.449Z,68.45
2023-02-02T07:34:43.464Z,68.14
2023-02-02T07:35:43.419Z,68.86
2023-02-02T07:36:44.395Z,68.11
2023-02-02T07:37:43.385Z,68.24
2023-02-02T07:38:43.397Z,67.42
2023-02-02T07:39:44.380Z,67.39
2023-02-02T07:40:43.403Z,67.90
2023-02-02T07:41:43.355Z,67.49
2023-02-02T07:42:46.363Z,67.39
2023-02-02T07:43:43.346Z,67.70
2023-02-02T07:44:43.328Z,68.01
2023-02-02T07:45:43.338Z,67.90
2023-02-02T07:46:43.362Z,67.73
2023-02-02T07:47:43.295Z,67.63
2023-02-02T07:48:43.334Z,67.63
2023-02-02T07:49:43.314Z,68.35
2023-02-02T07:50:44.367Z,68.24
2023-02-02T07:51:47.558Z,68.21
2023-02-02T07:52:43.239Z,68.01
2023-02-02T07:53:44.247Z,68.32
2023-02-02T07:54:43.203Z,68.11
2023-02-02T07:55:43.223Z,67.49
2023-02-02T07:56:43.206Z,68.14
2023-02-02T07:57:43.206Z,68.42
2023-02-02T07:58:50.322Z,68.01
2023-02-02T07:59:43.151Z,67.87
2023-02-02T08:00:44.209Z,67.46
2023-02-02T08:01:43.177Z,67.66
2023-02-02T08:02:43.209Z,67.84
2023-02-02T08:03:43.160Z,67.53
2023-02-02T08:04:43.144Z,67.25
2023-02-02T08:05:43.094Z,68.25
2023-02-02T08:06:43.100Z,67.46
2023-02-02T08:07:43.148Z,67.43
2023-02-02T08:08:43.107Z,67.63
2023-02-02T08:09:44.077Z,67.74
2023-02-02T08:10:43.063Z,68.05
2023-02-02T08:11:44.100Z,68.05
2023-02-02T08:12:43.018Z,68.56
2023-02-02T08:13:43.012Z,68.35
2023-02-02T08:14:43.009Z,68.29
2023-02-02T08:15:42.983Z,68.05
2023-02-02T08:16:42.987Z,68.39
2023-02-02T08:17:43.976Z,67.77
2023-02-02T08:18:42.948Z,68.49
2023-02-02T08:19:42.978Z,68.70
2023-02-02T08:20:42.931Z,68.49
2023-02-02T08:21:42.957Z,68.49
2023-02-02T08:22:43.897Z,68.46
2023-02-02T08:23:43.895Z,67.84
2023-02-02T08:24:42.873Z,68.29
2023-02-02T08:25:43.896Z,68.66
2023-02-02T08:26:43.933Z,68.39
2023-02-02T08:27:43.863Z,67.84
2023-02-02T08:28:42.853Z,68.80
2023-02-02T08:29:42.832Z,68.39
2023-02-02T08:30:42.889Z,68.56
2023-02-02T08:31:42.891Z,68.66
2023-02-02T08:32:42.823Z,68.35
2023-02-02T08:33:42.816Z,68.80
2023-02-02T08:34:42.809Z,69.11
2023-02-02T08:35:42.764Z,68.80
2023-02-02T08:36:43.748Z,69.21
2023-02-02T08:37:43.733Z,69.11
2023-02-02T08:38:43.806Z,68.90
2023-02-02T08:39:42.739Z,69.18
2023-02-02T08:40:43.695Z,69.18
2023-02-02T08:41:42.709Z,69.18
2023-02-02T08:42:42.680Z,68.77
2023-02-02T08:43:42.706Z,68.77
2023-02-02T08:46:00.434Z,68.56
2023-02-02T08:46:01.092Z,68.66
2023-02-02T08:46:43.709Z,69.18
2023-02-02T08:47:42.613Z,69.38
2023-02-02T08:48:42.757Z,69.18
2023-02-02T08:49:42.616Z,68.98
2023-02-02T08:50:43.591Z,68.66
2023-02-02T08:51:42.619Z,68.77
2023-02-02T08:52:42.582Z,68.63
2023-02-02T08:53:42.722Z,69.28
2023-02-02T08:54:42.541Z,69.04
2023-02-02T08:55:42.635Z,68.94
2023-02-02T08:56:42.541Z,68.87
2023-02-02T08:57:42.523Z,69.28
2023-02-02T08:58:42.538Z,69.49
2023-02-02T08:59:42.604Z,69.28
2023-02-02T09:00:42.523Z,69.62
2023-02-02T09:01:42.507Z,69.93
2023-02-02T09:02:42.481Z,69.38
2023-02-02T09:03:42.454Z,69.70
2023-02-02T09:04:42.464Z,69.49
2023-02-02T09:05:43.600Z,69.18
2023-02-02T09:06:42.410Z,69.25
2023-02-02T09:07:42.425Z,69.28
2023-02-02T09:08:42.473Z,68.94
2023-02-02T09:09:42.383Z,68.63
2023-02-02T09:10:42.386Z,68.60
2023-02-02T09:11:43.376Z,68.60
2023-02-02T09:12:42.355Z,68.60
2023-02-02T09:13:42.371Z,67.91
2023-02-02T09:14:43.316Z,67.98
2023-02-02T09:15:43.321Z,68.08
2023-02-02T09:16:42.378Z,67.98
2023-02-02T09:17:42.330Z,67.16
2023-02-02T09:18:42.301Z,67.26
2023-02-02T09:19:42.276Z,67.78
2023-02-02T09:20:43.265Z,68.60
2023-02-02T09:21:42.252Z,68.08
2023-02-02T09:22:42.600Z,68.57
2023-02-02T09:23:42.235Z,68.26
2023-02-02T09:24:42.223Z,68.77
2023-02-02T09:25:43.223Z,67.68
2023-02-02T09:26:43.240Z,67.75
2023-02-02T09:27:42.171Z,67.33
2023-02-02T09:28:42.177Z,67.75
2023-02-02T09:29:42.186Z,67.95
2023-02-02T09:30:42.188Z,67.36
2023-02-02T09:31:42.221Z,67.33
2023-02-02T09:32:43.125Z,67.30
2023-02-02T09:33:42.115Z,67.10
2023-02-02T09:34:42.185Z,67.75
2023-02-02T09:35:42.137Z,67.65
2023-02-02T09:36:43.133Z,67.54
2023-02-02T09:37:42.086Z,67.44
2023-02-02T09:38:43.051Z,67.44
2023-02-02T09:39:42.066Z,67.95
2023-02-02T09:40:42.035Z,67.82
2023-02-02T09:41:42.078Z,68.02
2023-02-02T09:42:42.575Z,67.44
2023-02-02T09:43:42.034Z,67.61
2023-02-02T09:44:43.008Z,67.03
2023-02-02T09:45:41.993Z,67.54
2023-02-02T09:46:41.959Z,67.03
2023-02-02T09:47:42.997Z,67.20
2023-02-02T09:48:42.982Z,67.23
2023-02-02T09:49:42.939Z,67.51
2023-02-02T09:50:41.952Z,66.93
2023-02-02T09:51:41.917Z,66.79
2023-02-02T09:52:42.914Z,67.10
2023-02-02T09:53:54.797Z,66.69
2023-02-02T09:54:42.934Z,66.89
2023-02-02T09:55:41.861Z,66.89
2023-02-02T09:56:42.874Z,67.10
2023-02-02T09:57:41.867Z,67.20
2023-02-02T09:58:41.877Z,67.71
2023-02-02T09:59:41.898Z,67.27
2023-02-02T10:00:42.839Z,66.79
2023-02-02T10:01:41.837Z,67.17
2023-02-02T10:02:41.787Z,66.86
2023-02-02T10:03:42.901Z,67.20
2023-02-02T10:04:41.815Z,66.89
2023-02-02T10:05:41.808Z,66.82
2023-02-02T10:06:41.775Z,67.30
2023-02-02T10:07:41.737Z,67.30
2023-02-02T10:08:41.745Z,67.30
2023-02-02T10:09:41.753Z,67.41
2023-02-02T10:10:41.749Z,67.51
2023-02-02T10:11:42.746Z,67.17
2023-02-02T10:12:41.688Z,67.27
2023-02-02T10:13:42.679Z,67.68
2023-02-02T10:14:41.686Z,66.76
2023-02-02T10:15:41.751Z,66.76
2023-02-02T10:16:41.677Z,67.10
2023-02-02T10:17:42.710Z,67.27
2023-02-02T10:18:41.605Z,67.17
2023-02-02T10:19:41.596Z,66.96
2023-02-02T10:20:41.641Z,66.76
2023-02-02T10:21:41.590Z,66.55
2023-02-02T10:22:41.605Z,66.96
2023-02-02T10:23:41.614Z,66.04
2023-02-02T10:24:41.544Z,66.66
2023-02-02T10:25:42.535Z,66.96
2023-02-02T10:26:41.607Z,65.97
2023-02-02T10:27:41.547Z,66.48
2023-02-02T10:28:41.526Z,65.83
2023-02-02T10:29:48.918Z,65.94
2023-02-02T10:30:42.596Z,66.55
2023-02-02T10:31:42.632Z,66.07
2023-02-02T10:32:41.499Z,66.79
2023-02-02T10:33:41.484Z,66.76
2023-02-02T10:34:41.511Z,65.70
2023-02-02T10:35:41.469Z,65.70
2023-02-02T10:36:42.034Z,65.50
2023-02-02T10:37:41.415Z,65.70
2023-02-02T10:38:41.470Z,65.39
2023-02-02T10:39:41.436Z,66.01
2023-02-02T10:40:41.416Z,65.06
2023-02-02T10:41:41.456Z,64.75
2023-02-02T10:42:41.345Z,65.60
2023-02-02T10:43:41.346Z,65.91
2023-02-02T10:44:41.323Z,65.83
2023-02-02T10:45:41.329Z,65.12
2023-02-02T10:46:41.418Z,65.53
2023-02-02T10:47:41.346Z,65.63
2023-02-02T10:48:41.279Z,66.07
2023-02-02T10:49:41.287Z,65.86
2023-02-02T10:50:42.315Z,65.73
2023-02-02T10:51:41.344Z,65.73
2023-02-02T10:52:41.250Z,65.22
2023-02-02T10:53:41.279Z,64.98
2023-02-02T10:54:55.499Z,65.39
2023-02-02T10:55:42.236Z,64.98
2023-02-02T10:56:41.197Z,65.39
2023-02-02T10:57:41.218Z,65.22
2023-02-02T10:58:42.180Z,66.79
2023-02-02T10:59:41.226Z,65.97
2023-02-02T11:00:41.213Z,65.73
2023-02-02T11:01:41.239Z,65.01
2023-02-02T11:02:41.191Z,65.39
2023-02-02T11:03:41.123Z,65.50
2023-02-02T11:04:41.106Z,65.60
2023-02-02T11:05:42.157Z,65.70
2023-02-02T11:06:41.080Z,66.04
2023-02-02T11:07:41.102Z,65.22
2023-02-02T11:08:41.084Z,65.77
2023-02-02T11:09:41.065Z,65.97
2023-02-02T11:10:41.067Z,66.17
2023-02-02T11:11:41.112Z,65.97
2023-02-02T11:12:41.049Z,66.17
2023-02-02T11:13:41.050Z,65.77
2023-02-02T11:14:45.024Z,66.48
2023-02-02T11:15:42.001Z,66.38
2023-02-02T11:16:44.088Z,66.55
2023-02-02T11:17:40.983Z,66.76
2023-02-02T11:18:42.874Z,65.19
2023-02-02T11:19:40.968Z,65.53
2023-02-02T11:20:40.962Z,66.04
2023-02-02T11:21:40.941Z,65.60
2023-02-02T11:22:40.920Z,65.94
2023-02-02T11:23:40.909Z,64.91
2023-02-02T11:24:40.922Z,65.53
2023-02-02T11:25:41.891Z,66.04
2023-02-02T11:26:40.987Z,65.73
2023-02-02T11:27:40.848Z,65.63
2023-02-02T11:28:40.884Z,66.11
2023-02-02T11:29:40.877Z,65.47
2023-02-02T11:30:40.864Z,65.06
2023-02-02T11:31:40.867Z,64.98
2023-02-02T11:32:40.819Z,65.26
2023-02-02T11:33:40.878Z,65.33
2023-02-02T11:34:40.774Z,64.54
2023-02-02T11:35:40.802Z,64.95
2023-02-02T11:36:40.805Z,64.41
2023-02-02T11:37:40.773Z,64.51
2023-02-02T11:38:40.739Z,64.64
2023-02-02T11:39:40.724Z,64.54
2023-02-02T11:40:40.708Z,64.64
2023-02-02T11:41:40.732Z,65.16
2023-02-02T11:42:40.744Z,64.75
2023-02-02T11:43:40.710Z,64.64
2023-02-02T11:44:40.686Z,64.34
2023-02-02T11:45:40.663Z,64.54
2023-02-02T11:46:41.710Z,64.64
2023-02-02T11:47:40.641Z,64.75
2023-02-02T11:48:41.650Z,64.26
2023-02-02T11:49:40.652Z,64.23
2023-02-02T11:50:40.662Z,64.75
2023-02-02T11:51:40.613Z,64.64
2023-02-02T11:52:40.603Z,65.26
2023-02-02T11:53:40.592Z,65.47
2023-02-02T11:54:41.549Z,65.36
2023-02-02T11:55:40.607Z,65.16
2023-02-02T11:56:40.584Z,64.98
2023-02-02T11:57:40.518Z,65.19
2023-02-02T11:58:40.534Z,65.80
2023-02-02T11:59:40.521Z,65.70
2023-02-02T12:00:40.493Z,66.93
2023-02-02T12:01:40.592Z,66.63
2023-02-02T12:02:40.510Z,66.39
2023-02-02T12:03:41.531Z,66.83
2023-02-02T12:04:40.469Z,66.83
2023-02-02T12:05:40.459Z,66.90
2023-02-02T12:06:40.427Z,67.52
2023-02-02T12:07:41.455Z,67.11
2023-02-02T12:08:41.417Z,67.72
2023-02-02T12:09:40.412Z,68.48
2023-02-02T12:10:40.423Z,68.54
2023-02-02T12:11:40.449Z,68.34
2023-02-02T12:12:41.388Z,68.96
2023-02-02T12:13:40.372Z,68.99
2023-02-02T12:14:40.346Z,69.06
2023-02-02T12:15:40.353Z,69.16
2023-02-02T12:16:41.358Z,68.96
2023-02-02T12:17:40.308Z,68.34
2023-02-02T12:18:41.301Z,67.93
2023-02-02T12:19:40.316Z,68.34
2023-02-02T12:20:40.277Z,67.41
2023-02-02T12:21:40.285Z,67.00
2023-02-02T12:22:41.261Z,66.83
2023-02-02T12:23:40.237Z,67.11
2023-02-02T12:24:40.248Z,66.70
2023-02-02T12:25:40.210Z,66.70
2023-02-02T12:26:41.340Z,67.08
2023-02-02T12:27:40.221Z,66.36
2023-02-02T12:28:40.194Z,64.92
2023-02-02T12:29:40.181Z,65.74
2023-02-02T12:30:40.234Z,65.03
2023-02-02T12:31:40.209Z,64.92
2023-02-02T12:32:40.165Z,66.67
2023-02-02T12:33:40.162Z,65.33
2023-02-02T12:34:40.125Z,64.51
2023-02-02T12:35:40.114Z,65.03
2023-02-02T12:36:40.129Z,64.72
2023-02-02T12:37:41.102Z,65.44
2023-02-02T12:38:41.103Z,65.36
2023-02-02T12:39:40.100Z,65.26
2023-02-02T12:40:41.059Z,65.26
2023-02-02T12:41:40.073Z,64.75
2023-02-02T12:42:40.056Z,65.12
2023-02-02T12:43:41.041Z,64.92
2023-02-02T12:44:40.015Z,64.72
2023-02-02T12:45:40.065Z,64.48
2023-02-02T12:46:40.038Z,64.69
2023-02-02T12:47:39.993Z,64.69
2023-02-02T12:48:39.957Z,64.59
2023-02-02T12:49:40.971Z,64.38
2023-02-02T12:50:40.002Z,63.97
2023-02-02T12:51:40.942Z,63.76
2023-02-02T12:52:39.920Z,63.02